sensor_id;sensor_type;location;lat;lon;timestamp;P1;durP1;ratioP1;P2;durP2;ratioP2
25988;SDS011;13778;48.236;9.894;2023-10-08T00:01:38;11.32;;;7.75;;
25988;SDS011;13778;48.236;9.894;2023-10-08T00:04:31;14.10;;;9.02;;
25988;SDS011;13778;48.236;9.894;2023-10-08T00:07:27;14.75;;;8.40;;
25988;SDS011;13778;48.236;9.894;2023-10-08T00:10:18;15.23;;;8.10;;
25988;SDS011;13778;48.236;9.894;2023-10-08T00:13:09;12.98;;;8.02;;
25988;SDS011;13778;48.236;9.894;2023-10-08T00:15:59;14.85;;;8.68;;
25988;SDS011;13778;48.236;9.894;2023-10-08T00:18:50;12.48;;;8.50;;
25988;SDS011;13778;48.236;9.894;2023-10-08T00:21:40;15.82;;;9.32;;
25988;SDS011;13778;48.236;9.894;2023-10-08T00:24:35;12.77;;;8.57;;
25988;SDS011;13778;48.236;9.894;2023-10-08T00:27:26;16.85;;;9.23;;
25988;SDS011;13778;48.236;9.894;2023-10-08T00:30:17;12.48;;;8.85;;
25988;SDS011;13778;48.236;9.894;2023-10-08T00:33:08;12.40;;;8.90;;
25988;SDS011;13778;48.236;9.894;2023-10-08T00:36:00;12.68;;;8.65;;
25988;SDS011;13778;48.236;9.894;2023-10-08T00:39:06;12.95;;;7.85;;
25988;SDS011;13778;48.236;9.894;2023-10-08T00:42:03;11.25;;;8.07;;
25988;SDS011;13778;48.236;9.894;2023-10-08T00:44:56;11.00;;;8.15;;
25988;SDS011;13778;48.236;9.894;2023-10-08T00:47:46;15.23;;;9.30;;
25988;SDS011;13778;48.236;9.894;2023-10-08T00:50:37;12.00;;;8.43;;
25988;SDS011;13778;48.236;9.894;2023-10-08T00:53:32;13.77;;;8.82;;
25988;SDS011;13778;48.236;9.894;2023-10-08T00:56:28;13.35;;;8.52;;
25988;SDS011;13778;48.236;9.894;2023-10-08T00:59:36;13.73;;;8.27;;
25988;SDS011;13778;48.236;9.894;2023-10-08T01:02:33;10.80;;;7.50;;
25988;SDS011;13778;48.236;9.894;2023-10-08T01:05:35;11.57;;;8.05;;
25988;SDS011;13778;48.236;9.894;2023-10-08T01:08:35;16.98;;;8.05;;
25988;SDS011;13778;48.236;9.894;2023-10-08T01:11:26;13.45;;;8.07;;
25988;SDS011;13778;48.236;9.894;2023-10-08T01:14:28;13.07;;;7.50;;
25988;SDS011;13778;48.236;9.894;2023-10-08T01:17:23;12.27;;;8.32;;
25988;SDS011;13778;48.236;9.894;2023-10-08T01:20:16;12.05;;;6.75;;
25988;SDS011;13778;48.236;9.894;2023-10-08T01:23:24;14.13;;;8.00;;
25988;SDS011;13778;48.236;9.894;2023-10-08T01:26:19;13.82;;;7.78;;
25988;SDS011;13778;48.236;9.894;2023-10-08T01:29:12;15.32;;;7.30;;
25988;SDS011;13778;48.236;9.894;2023-10-08T01:32:09;11.90;;;7.57;;
25988;SDS011;13778;48.236;9.894;2023-10-08T01:35:00;11.15;;;6.95;;
25988;SDS011;13778;48.236;9.894;2023-10-08T01:37:53;13.13;;;7.38;;
25988;SDS011;13778;48.236;9.894;2023-10-08T01:40:47;11.18;;;7.18;;
25988;SDS011;13778;48.236;9.894;2023-10-08T01:43:40;10.80;;;6.95;;
25988;SDS011;13778;48.236;9.894;2023-10-08T01:46:30;11.40;;;7.45;;
25988;SDS011;13778;48.236;9.894;2023-10-08T01:49:21;13.23;;;6.40;;
25988;SDS011;13778;48.236;9.894;2023-10-08T01:52:15;11.25;;;7.35;;
25988;SDS011;13778;48.236;9.894;2023-10-08T01:55:10;11.63;;;7.43;;
25988;SDS011;13778;48.236;9.894;2023-10-08T01:58:07;11.13;;;6.78;;
25988;SDS011;13778;48.236;9.894;2023-10-08T02:03:49;12.48;;;7.80;;
25988;SDS011;13778;48.236;9.894;2023-10-08T02:06:39;10.70;;;7.03;;
25988;SDS011;13778;48.236;9.894;2023-10-08T02:09:30;16.55;;;7.32;;
25988;SDS011;13778;48.236;9.894;2023-10-08T02:12:22;11.77;;;7.28;;
25988;SDS011;13778;48.236;9.894;2023-10-08T02:15:14;15.23;;;7.65;;
25988;SDS011;13778;48.236;9.894;2023-10-08T02:20:55;13.15;;;6.85;;
25988;SDS011;13778;48.236;9.894;2023-10-08T02:23:47;12.95;;;7.00;;
25988;SDS011;13778;48.236;9.894;2023-10-08T02:26:38;12.15;;;6.72;;
25988;SDS011;13778;48.236;9.894;2023-10-08T02:29:29;12.18;;;6.38;;
25988;SDS011;13778;48.236;9.894;2023-10-08T02:32:22;10.38;;;6.32;;
25988;SDS011;13778;48.236;9.894;2023-10-08T02:38:02;10.95;;;6.75;;
25988;SDS011;13778;48.236;9.894;2023-10-08T02:40:55;11.10;;;6.45;;
25988;SDS011;13778;48.236;9.894;2023-10-08T02:43:46;11.43;;;6.88;;
25988;SDS011;13778;48.236;9.894;2023-10-08T02:46:38;12.48;;;6.93;;
25988;SDS011;13778;48.236;9.894;2023-10-08T02:49:31;10.27;;;6.47;;
25988;SDS011;13778;48.236;9.894;2023-10-08T02:52:23;10.98;;;7.18;;
25988;SDS011;13778;48.236;9.894;2023-10-08T02:55:15;12.68;;;6.90;;
25988;SDS011;13778;48.236;9.894;2023-10-08T03:01:07;13.13;;;7.38;;
25988;SDS011;13778;48.236;9.894;2023-10-08T03:04:01;10.43;;;7.25;;
25988;SDS011;13778;48.236;9.894;2023-10-08T03:07:02;10.82;;;6.70;;
25988;SDS011;13778;48.236;9.894;2023-10-08T03:12:52;15.00;;;8.18;;
25988;SDS011;13778;48.236;9.894;2023-10-08T03:15:42;10.38;;;6.32;;
25988;SDS011;13778;48.236;9.894;2023-10-08T03:18:46;13.05;;;6.57;;
25988;SDS011;13778;48.236;9.894;2023-10-08T03:21:39;13.57;;;7.18;;
25988;SDS011;13778;48.236;9.894;2023-10-08T03:24:39;12.60;;;7.18;;
25988;SDS011;13778;48.236;9.894;2023-10-08T03:27:30;12.77;;;6.78;;
25988;SDS011;13778;48.236;9.894;2023-10-08T03:30:26;15.25;;;6.80;;
25988;SDS011;13778;48.236;9.894;2023-10-08T03:33:17;11.70;;;7.07;;
25988;SDS011;13778;48.236;9.894;2023-10-08T03:36:12;13.18;;;6.95;;
25988;SDS011;13778;48.236;9.894;2023-10-08T03:39:09;11.52;;;7.70;;
25988;SDS011;13778;48.236;9.894;2023-10-08T03:42:04;13.20;;;7.10;;
25988;SDS011;13778;48.236;9.894;2023-10-08T03:44:57;11.55;;;6.88;;
25988;SDS011;13778;48.236;9.894;2023-10-08T03:47:53;11.48;;;7.38;;
25988;SDS011;13778;48.236;9.894;2023-10-08T03:50:55;12.55;;;6.75;;
25988;SDS011;13778;48.236;9.894;2023-10-08T03:53:55;12.82;;;7.10;;
25988;SDS011;13778;48.236;9.894;2023-10-08T03:56:59;12.38;;;7.13;;
25988;SDS011;13778;48.236;9.894;2023-10-08T03:59:51;15.30;;;7.00;;
25988;SDS011;13778;48.236;9.894;2023-10-08T04:02:47;9.75;;;6.07;;
25988;SDS011;13778;48.236;9.894;2023-10-08T04:05:44;10.00;;;6.60;;
25988;SDS011;13778;48.236;9.894;2023-10-08T04:08:48;10.82;;;6.82;;
25988;SDS011;13778;48.236;9.894;2023-10-08T04:12:00;11.30;;;6.53;;
25988;SDS011;13778;48.236;9.894;2023-10-08T04:15:01;10.85;;;7.07;;
25988;SDS011;13778;48.236;9.894;2023-10-08T04:17:56;12.93;;;7.18;;
25988;SDS011;13778;48.236;9.894;2023-10-08T04:20:47;9.68;;;6.25;;
25988;SDS011;13778;48.236;9.894;2023-10-08T04:23:49;11.63;;;7.05;;
25988;SDS011;13778;48.236;9.894;2023-10-08T04:26:42;15.35;;;7.28;;
25988;SDS011;13778;48.236;9.894;2023-10-08T04:29:33;12.48;;;7.38;;
25988;SDS011;13778;48.236;9.894;2023-10-08T04:32:27;12.73;;;7.25;;
25988;SDS011;13778;48.236;9.894;2023-10-08T04:35:20;11.50;;;6.70;;
25988;SDS011;13778;48.236;9.894;2023-10-08T04:38:15;11.95;;;7.30;;
25988;SDS011;13778;48.236;9.894;2023-10-08T04:41:07;12.95;;;7.00;;
25988;SDS011;13778;48.236;9.894;2023-10-08T04:43:58;13.88;;;8.02;;
25988;SDS011;13778;48.236;9.894;2023-10-08T04:46:56;15.27;;;7.18;;
25988;SDS011;13778;48.236;9.894;2023-10-08T04:49:55;11.88;;;6.60;;
25988;SDS011;13778;48.236;9.894;2023-10-08T04:52:45;14.95;;;7.30;;
25988;SDS011;13778;48.236;9.894;2023-10-08T04:55:47;15.02;;;7.32;;
25988;SDS011;13778;48.236;9.894;2023-10-08T04:58:38;11.10;;;6.63;;
25988;SDS011;13778;48.236;9.894;2023-10-08T05:01:29;11.27;;;7.40;;
25988;SDS011;13778;48.236;9.894;2023-10-08T05:04:27;12.40;;;6.55;;
25988;SDS011;13778;48.236;9.894;2023-10-08T05:07:23;12.65;;;6.95;;
25988;SDS011;13778;48.236;9.894;2023-10-08T05:10:46;14.57;;;7.25;;
25988;SDS011;13778;48.236;9.894;2023-10-08T05:13:44;13.07;;;7.40;;
25988;SDS011;13778;48.236;9.894;2023-10-08T05:16:44;13.32;;;7.72;;
25988;SDS011;13778;48.236;9.894;2023-10-08T05:19:49;12.98;;;6.88;;
25988;SDS011;13778;48.236;9.894;2023-10-08T05:22:58;12.90;;;6.88;;
25988;SDS011;13778;48.236;9.894;2023-10-08T05:26:05;13.73;;;6.85;;
25988;SDS011;13778;48.236;9.894;2023-10-08T05:28:59;13.80;;;7.40;;
25988;SDS011;13778;48.236;9.894;2023-10-08T05:32:12;13.02;;;7.40;;
25988;SDS011;13778;48.236;9.894;2023-10-08T05:35:27;11.88;;;6.60;;
25988;SDS011;13778;48.236;9.894;2023-10-08T05:38:37;11.52;;;6.65;;
25988;SDS011;13778;48.236;9.894;2023-10-08T05:41:37;15.88;;;7.40;;
25988;SDS011;13778;48.236;9.894;2023-10-08T05:44:42;12.25;;;6.85;;
25988;SDS011;13778;48.236;9.894;2023-10-08T05:47:34;15.70;;;7.50;;
25988;SDS011;13778;48.236;9.894;2023-10-08T05:50:30;15.10;;;6.90;;
25988;SDS011;13778;48.236;9.894;2023-10-08T05:53:28;12.70;;;6.70;;
25988;SDS011;13778;48.236;9.894;2023-10-08T05:56:33;13.00;;;6.28;;
25988;SDS011;13778;48.236;9.894;2023-10-08T05:59:43;13.35;;;7.50;;
25988;SDS011;13778;48.236;9.894;2023-10-08T06:03:02;14.00;;;6.63;;
25988;SDS011;13778;48.236;9.894;2023-10-08T06:06:20;13.07;;;6.78;;
25988;SDS011;13778;48.236;9.894;2023-10-08T06:09:24;13.00;;;6.63;;
25988;SDS011;13778;48.236;9.894;2023-10-08T06:12:24;12.13;;;6.47;;
25988;SDS011;13778;48.236;9.894;2023-10-08T06:15:21;10.27;;;6.28;;
25988;SDS011;13778;48.236;9.894;2023-10-08T06:18:27;11.18;;;6.55;;
25988;SDS011;13778;48.236;9.894;2023-10-08T06:21:18;10.90;;;6.20;;
25988;SDS011;13778;48.236;9.894;2023-10-08T06:24:10;11.27;;;6.85;;
25988;SDS011;13778;48.236;9.894;2023-10-08T06:27:06;11.70;;;6.25;;
25988;SDS011;13778;48.236;9.894;2023-10-08T06:29:57;9.13;;;6.50;;
25988;SDS011;13778;48.236;9.894;2023-10-08T06:32:50;15.00;;;6.32;;
25988;SDS011;13778;48.236;9.894;2023-10-08T06:35:43;12.00;;;6.97;;
25988;SDS011;13778;48.236;9.894;2023-10-08T06:38:42;15.60;;;7.40;;
25988;SDS011;13778;48.236;9.894;2023-10-08T06:41:33;15.70;;;7.00;;
25988;SDS011;13778;48.236;9.894;2023-10-08T06:44:23;14.40;;;7.13;;
25988;SDS011;13778;48.236;9.894;2023-10-08T06:47:15;14.13;;;6.65;;
25988;SDS011;13778;48.236;9.894;2023-10-08T06:50:09;13.70;;;7.15;;
25988;SDS011;13778;48.236;9.894;2023-10-08T06:53:04;10.32;;;6.28;;
25988;SDS011;13778;48.236;9.894;2023-10-08T06:55:56;11.43;;;7.00;;
25988;SDS011;13778;48.236;9.894;2023-10-08T06:58:47;13.15;;;6.85;;
25988;SDS011;13778;48.236;9.894;2023-10-08T07:01:38;10.60;;;6.60;;
25988;SDS011;13778;48.236;9.894;2023-10-08T07:04:29;12.55;;;7.15;;
25988;SDS011;13778;48.236;9.894;2023-10-08T07:07:21;13.88;;;7.70;;
25988;SDS011;13778;48.236;9.894;2023-10-08T07:13:01;12.52;;;6.50;;
25988;SDS011;13778;48.236;9.894;2023-10-08T07:15:52;12.07;;;7.10;;
25988;SDS011;13778;48.236;9.894;2023-10-08T07:18:44;11.00;;;7.00;;
25988;SDS011;13778;48.236;9.894;2023-10-08T07:21:40;15.75;;;7.53;;
25988;SDS011;13778;48.236;9.894;2023-10-08T07:24:35;12.15;;;7.10;;
25988;SDS011;13778;48.236;9.894;2023-10-08T07:27:26;13.48;;;8.20;;
25988;SDS011;13778;48.236;9.894;2023-10-08T07:30:21;13.05;;;8.18;;
25988;SDS011;13778;48.236;9.894;2023-10-08T07:33:15;15.63;;;8.60;;
25988;SDS011;13778;48.236;9.894;2023-10-08T07:36:09;16.55;;;8.73;;
25988;SDS011;13778;48.236;9.894;2023-10-08T07:39:03;13.40;;;6.60;;
25988;SDS011;13778;48.236;9.894;2023-10-08T07:41:59;13.93;;;7.60;;
25988;SDS011;13778;48.236;9.894;2023-10-08T07:44:50;15.63;;;7.78;;
25988;SDS011;13778;48.236;9.894;2023-10-08T07:47:44;15.77;;;7.28;;
25988;SDS011;13778;48.236;9.894;2023-10-08T07:50:34;14.15;;;7.40;;
25988;SDS011;13778;48.236;9.894;2023-10-08T07:53:27;13.73;;;7.10;;
25988;SDS011;13778;48.236;9.894;2023-10-08T07:56:26;17.27;;;6.43;;
25988;SDS011;13778;48.236;9.894;2023-10-08T07:59:18;11.50;;;6.60;;
25988;SDS011;13778;48.236;9.894;2023-10-08T08:02:12;9.63;;;6.05;;
25988;SDS011;13778;48.236;9.894;2023-10-08T08:05:03;14.30;;;7.60;;
25988;SDS011;13778;48.236;9.894;2023-10-08T08:07:53;11.65;;;6.88;;
25988;SDS011;13778;48.236;9.894;2023-10-08T08:13:35;13.15;;;6.97;;
25988;SDS011;13778;48.236;9.894;2023-10-08T08:16:27;13.77;;;6.63;;
25988;SDS011;13778;48.236;9.894;2023-10-08T08:19:18;8.68;;;5.80;;
25988;SDS011;13778;48.236;9.894;2023-10-08T08:22:14;9.82;;;6.50;;
25988;SDS011;13778;48.236;9.894;2023-10-08T08:25:10;10.43;;;6.65;;
25988;SDS011;13778;48.236;9.894;2023-10-08T08:28:05;13.40;;;7.25;;
25988;SDS011;13778;48.236;9.894;2023-10-08T08:31:01;17.23;;;7.20;;
25988;SDS011;13778;48.236;9.894;2023-10-08T08:33:55;12.25;;;7.32;;
25988;SDS011;13778;48.236;9.894;2023-10-08T08:36:51;14.65;;;6.95;;
25988;SDS011;13778;48.236;9.894;2023-10-08T08:39:42;16.73;;;6.95;;
25988;SDS011;13778;48.236;9.894;2023-10-08T08:42:33;13.35;;;6.65;;
25988;SDS011;13778;48.236;9.894;2023-10-08T08:45:25;15.10;;;6.22;;
25988;SDS011;13778;48.236;9.894;2023-10-08T08:48:15;12.85;;;6.63;;
25988;SDS011;13778;48.236;9.894;2023-10-08T08:51:08;16.67;;;7.95;;
25988;SDS011;13778;48.236;9.894;2023-10-08T08:56:55;14.15;;;6.05;;
25988;SDS011;13778;48.236;9.894;2023-10-08T08:59:49;13.70;;;6.45;;
25988;SDS011;13778;48.236;9.894;2023-10-08T09:02:42;11.77;;;5.43;;
25988;SDS011;13778;48.236;9.894;2023-10-08T09:08:28;9.65;;;5.85;;
25988;SDS011;13778;48.236;9.894;2023-10-08T09:11:20;8.77;;;5.63;;
25988;SDS011;13778;48.236;9.894;2023-10-08T09:14:11;10.60;;;5.93;;
25988;SDS011;13778;48.236;9.894;2023-10-08T09:17:02;13.80;;;5.97;;
25988;SDS011;13778;48.236;9.894;2023-10-08T09:19:54;12.38;;;6.18;;
25988;SDS011;13778;48.236;9.894;2023-10-08T09:22:44;14.45;;;6.85;;
25988;SDS011;13778;48.236;9.894;2023-10-08T09:25:37;18.13;;;6.85;;
25988;SDS011;13778;48.236;9.894;2023-10-08T09:28:29;11.35;;;6.18;;
25988;SDS011;13778;48.236;9.894;2023-10-08T09:31:22;16.92;;;6.63;;
25988;SDS011;13778;48.236;9.894;2023-10-08T09:34:12;9.80;;;5.20;;
25988;SDS011;13778;48.236;9.894;2023-10-08T09:37:06;10.43;;;5.57;;
25988;SDS011;13778;48.236;9.894;2023-10-08T09:39:57;11.40;;;5.57;;
25988;SDS011;13778;48.236;9.894;2023-10-08T09:42:49;12.30;;;5.73;;
25988;SDS011;13778;48.236;9.894;2023-10-08T09:45:41;13.35;;;5.43;;
25988;SDS011;13778;48.236;9.894;2023-10-08T09:48:33;11.25;;;5.38;;
25988;SDS011;13778;48.236;9.894;2023-10-08T09:51:26;13.40;;;5.60;;
25988;SDS011;13778;48.236;9.894;2023-10-08T09:54:20;12.38;;;6.85;;
25988;SDS011;13778;48.236;9.894;2023-10-08T09:57:12;14.52;;;6.05;;
25988;SDS011;13778;48.236;9.894;2023-10-08T10:00:05;14.88;;;5.95;;
25988;SDS011;13778;48.236;9.894;2023-10-08T10:02:59;11.38;;;6.03;;
25988;SDS011;13778;48.236;9.894;2023-10-08T10:05:51;10.68;;;5.13;;
25988;SDS011;13778;48.236;9.894;2023-10-08T10:08:42;16.08;;;5.47;;
25988;SDS011;13778;48.236;9.894;2023-10-08T10:11:33;11.97;;;5.03;;
25988;SDS011;13778;48.236;9.894;2023-10-08T10:14:23;10.80;;;5.60;;
25988;SDS011;13778;48.236;9.894;2023-10-08T10:17:19;9.75;;;5.60;;
25988;SDS011;13778;48.236;9.894;2023-10-08T10:20:11;13.85;;;6.03;;
25988;SDS011;13778;48.236;9.894;2023-10-08T10:23:12;10.95;;;5.07;;
25988;SDS011;13778;48.236;9.894;2023-10-08T10:26:24;15.30;;;5.90;;
25988;SDS011;13778;48.236;9.894;2023-10-08T10:29:18;15.07;;;6.00;;
25988;SDS011;13778;48.236;9.894;2023-10-08T10:32:10;13.90;;;5.68;;
25988;SDS011;13778;48.236;9.894;2023-10-08T10:35:03;12.40;;;5.53;;
25988;SDS011;13778;48.236;9.894;2023-10-08T10:37:56;13.98;;;6.22;;
25988;SDS011;13778;48.236;9.894;2023-10-08T10:40:52;10.98;;;4.93;;
25988;SDS011;13778;48.236;9.894;2023-10-08T10:43:46;11.88;;;5.22;;
25988;SDS011;13778;48.236;9.894;2023-10-08T10:46:42;10.13;;;5.45;;
25988;SDS011;13778;48.236;9.894;2023-10-08T10:49:32;12.98;;;6.00;;
25988;SDS011;13778;48.236;9.894;2023-10-08T10:52:27;15.93;;;5.93;;
25988;SDS011;13778;48.236;9.894;2023-10-08T10:55:21;14.48;;;5.75;;
25988;SDS011;13778;48.236;9.894;2023-10-08T10:58:20;15.32;;;5.70;;
25988;SDS011;13778;48.236;9.894;2023-10-08T11:01:13;15.52;;;5.90;;
25988;SDS011;13778;48.236;9.894;2023-10-08T11:04:12;12.05;;;5.80;;
25988;SDS011;13778;48.236;9.894;2023-10-08T11:07:05;11.43;;;5.53;;
25988;SDS011;13778;48.236;9.894;2023-10-08T11:09:57;13.77;;;6.22;;
25988;SDS011;13778;48.236;9.894;2023-10-08T11:12:47;9.80;;;5.25;;
25988;SDS011;13778;48.236;9.894;2023-10-08T11:15:42;10.18;;;5.63;;
25988;SDS011;13778;48.236;9.894;2023-10-08T11:18:42;14.25;;;6.05;;
25988;SDS011;13778;48.236;9.894;2023-10-08T11:21:32;13.35;;;5.50;;
25988;SDS011;13778;48.236;9.894;2023-10-08T11:24:28;12.02;;;6.45;;
25988;SDS011;13778;48.236;9.894;2023-10-08T11:27:23;19.50;;;6.30;;
25988;SDS011;13778;48.236;9.894;2023-10-08T11:30:18;16.95;;;5.88;;
25988;SDS011;13778;48.236;9.894;2023-10-08T11:33:09;13.90;;;6.07;;
25988;SDS011;13778;48.236;9.894;2023-10-08T11:36:05;12.13;;;5.65;;
25988;SDS011;13778;48.236;9.894;2023-10-08T11:39:08;13.70;;;5.75;;
25988;SDS011;13778;48.236;9.894;2023-10-08T11:42:01;13.63;;;5.95;;
25988;SDS011;13778;48.236;9.894;2023-10-08T11:44:56;12.48;;;5.97;;
25988;SDS011;13778;48.236;9.894;2023-10-08T11:47:48;15.02;;;6.05;;
25988;SDS011;13778;48.236;9.894;2023-10-08T11:50:39;13.13;;;5.75;;
25988;SDS011;13778;48.236;9.894;2023-10-08T11:53:29;13.43;;;6.72;;
25988;SDS011;13778;48.236;9.894;2023-10-08T11:56:20;12.75;;;6.22;;
25988;SDS011;13778;48.236;9.894;2023-10-08T12:02:03;16.90;;;6.05;;
25988;SDS011;13778;48.236;9.894;2023-10-08T12:07:46;12.55;;;5.70;;
25988;SDS011;13778;48.236;9.894;2023-10-08T12:10:37;9.68;;;5.70;;
25988;SDS011;13778;48.236;9.894;2023-10-08T12:13:30;11.07;;;5.10;;
25988;SDS011;13778;48.236;9.894;2023-10-08T12:16:20;17.08;;;6.07;;
25988;SDS011;13778;48.236;9.894;2023-10-08T12:19:13;10.35;;;6.18;;
25988;SDS011;13778;48.236;9.894;2023-10-08T12:22:05;10.07;;;5.75;;
25988;SDS011;13778;48.236;9.894;2023-10-08T12:24:57;14.45;;;6.18;;
25988;SDS011;13778;48.236;9.894;2023-10-08T12:27:49;14.98;;;6.25;;
25988;SDS011;13778;48.236;9.894;2023-10-08T12:30:39;14.60;;;7.32;;
25988;SDS011;13778;48.236;9.894;2023-10-08T12:33:32;14.68;;;6.43;;
25988;SDS011;13778;48.236;9.894;2023-10-08T12:36:24;13.32;;;6.50;;
25988;SDS011;13778;48.236;9.894;2023-10-08T12:39:15;9.95;;;5.70;;
25988;SDS011;13778;48.236;9.894;2023-10-08T12:42:06;9.95;;;5.45;;
25988;SDS011;13778;48.236;9.894;2023-10-08T12:44:56;11.95;;;5.95;;
25988;SDS011;13778;48.236;9.894;2023-10-08T12:47:47;14.68;;;6.07;;
25988;SDS011;13778;48.236;9.894;2023-10-08T12:50:38;11.40;;;5.97;;
25988;SDS011;13778;48.236;9.894;2023-10-08T12:53:33;15.05;;;6.13;;
25988;SDS011;13778;48.236;9.894;2023-10-08T12:56:25;14.30;;;6.07;;
25988;SDS011;13778;48.236;9.894;2023-10-08T12:59:24;15.30;;;5.15;;
25988;SDS011;13778;48.236;9.894;2023-10-08T13:02:15;14.73;;;6.18;;
25988;SDS011;13778;48.236;9.894;2023-10-08T13:05:08;11.10;;;5.45;;
25988;SDS011;13778;48.236;9.894;2023-10-08T13:08:05;14.88;;;6.72;;
25988;SDS011;13778;48.236;9.894;2023-10-08T13:11:00;14.80;;;5.05;;
25988;SDS011;13778;48.236;9.894;2023-10-08T13:16:41;11.57;;;5.03;;
25988;SDS011;13778;48.236;9.894;2023-10-08T13:19:34;11.73;;;5.70;;
25988;SDS011;13778;48.236;9.894;2023-10-08T13:22:24;12.40;;;5.68;;
25988;SDS011;13778;48.236;9.894;2023-10-08T13:25:16;17.27;;;5.97;;
25988;SDS011;13778;48.236;9.894;2023-10-08T13:28:08;11.68;;;6.05;;
25988;SDS011;13778;48.236;9.894;2023-10-08T13:31:00;12.93;;;6.35;;
25988;SDS011;13778;48.236;9.894;2023-10-08T13:33:58;15.05;;;6.45;;
25988;SDS011;13778;48.236;9.894;2023-10-08T13:36:52;14.88;;;6.43;;
25988;SDS011;13778;48.236;9.894;2023-10-08T13:39:42;10.98;;;6.28;;
25988;SDS011;13778;48.236;9.894;2023-10-08T13:42:33;17.80;;;6.22;;
25988;SDS011;13778;48.236;9.894;2023-10-08T13:45:24;11.52;;;5.60;;
25988;SDS011;13778;48.236;9.894;2023-10-08T13:48:18;13.75;;;5.53;;
25988;SDS011;13778;48.236;9.894;2023-10-08T13:51:09;16.85;;;5.95;;
25988;SDS011;13778;48.236;9.894;2023-10-08T13:54:03;12.45;;;5.50;;
25988;SDS011;13778;48.236;9.894;2023-10-08T13:56:55;13.63;;;5.70;;
25988;SDS011;13778;48.236;9.894;2023-10-08T13:59:46;15.07;;;5.95;;
25988;SDS011;13778;48.236;9.894;2023-10-08T14:02:38;9.68;;;5.32;;
25988;SDS011;13778;48.236;9.894;2023-10-08T14:05:29;13.57;;;5.82;;
25988;SDS011;13778;48.236;9.894;2023-10-08T14:08:19;9.80;;;5.30;;
25988;SDS011;13778;48.236;9.894;2023-10-08T14:11:11;13.48;;;5.68;;
25988;SDS011;13778;48.236;9.894;2023-10-08T14:14:02;13.10;;;5.18;;
25988;SDS011;13778;48.236;9.894;2023-10-08T14:16:57;12.88;;;5.72;;
25988;SDS011;13778;48.236;9.894;2023-10-08T14:19:53;12.50;;;5.28;;
25988;SDS011;13778;48.236;9.894;2023-10-08T14:22:49;13.30;;;5.78;;
25988;SDS011;13778;48.236;9.894;2023-10-08T14:25:46;15.38;;;5.35;;
25988;SDS011;13778;48.236;9.894;2023-10-08T14:28:39;14.13;;;5.57;;
25988;SDS011;13778;48.236;9.894;2023-10-08T14:31:34;16.17;;;5.70;;
25988;SDS011;13778;48.236;9.894;2023-10-08T14:34:28;15.70;;;5.60;;
25988;SDS011;13778;48.236;9.894;2023-10-08T14:37:36;11.88;;;5.05;;
25988;SDS011;13778;48.236;9.894;2023-10-08T14:40:45;14.60;;;6.15;;
25988;SDS011;13778;48.236;9.894;2023-10-08T14:43:54;18.33;;;5.65;;
25988;SDS011;13778;48.236;9.894;2023-10-08T14:46:45;14.90;;;5.90;;
25988;SDS011;13778;48.236;9.894;2023-10-08T14:49:35;14.70;;;5.68;;
25988;SDS011;13778;48.236;9.894;2023-10-08T14:52:25;14.88;;;5.70;;
25988;SDS011;13778;48.236;9.894;2023-10-08T14:55:18;19.38;;;5.90;;
25988;SDS011;13778;48.236;9.894;2023-10-08T14:58:10;14.73;;;5.50;;
25988;SDS011;13778;48.236;9.894;2023-10-08T15:01:01;11.80;;;5.65;;
25988;SDS011;13778;48.236;9.894;2023-10-08T15:03:52;14.23;;;6.10;;
25988;SDS011;13778;48.236;9.894;2023-10-08T15:06:42;16.15;;;6.05;;
25988;SDS011;13778;48.236;9.894;2023-10-08T15:09:33;12.00;;;6.07;;
25988;SDS011;13778;48.236;9.894;2023-10-08T15:12:25;15.93;;;6.57;;
25988;SDS011;13778;48.236;9.894;2023-10-08T15:15:15;15.40;;;6.47;;
25988;SDS011;13778;48.236;9.894;2023-10-08T15:18:06;19.90;;;6.22;;
25988;SDS011;13778;48.236;9.894;2023-10-08T15:20:56;14.90;;;5.28;;
25988;SDS011;13778;48.236;9.894;2023-10-08T15:23:46;11.50;;;5.72;;
25988;SDS011;13778;48.236;9.894;2023-10-08T15:26:37;13.88;;;5.93;;
25988;SDS011;13778;48.236;9.894;2023-10-08T15:29:30;26.77;;;16.38;;
25988;SDS011;13778;48.236;9.894;2023-10-08T15:32:22;26.25;;;10.48;;
25988;SDS011;13778;48.236;9.894;2023-10-08T15:35:13;15.57;;;6.13;;
25988;SDS011;13778;48.236;9.894;2023-10-08T15:38:05;13.80;;;5.38;;
25988;SDS011;13778;48.236;9.894;2023-10-08T15:40:55;12.35;;;5.70;;
25988;SDS011;13778;48.236;9.894;2023-10-08T15:43:49;14.48;;;6.55;;
25988;SDS011;13778;48.236;9.894;2023-10-08T15:46:42;16.50;;;6.80;;
25988;SDS011;13778;48.236;9.894;2023-10-08T15:52:23;17.25;;;6.35;;
25988;SDS011;13778;48.236;9.894;2023-10-08T15:55:13;12.18;;;5.78;;
25988;SDS011;13778;48.236;9.894;2023-10-08T15:58:04;15.63;;;6.43;;
25988;SDS011;13778;48.236;9.894;2023-10-08T16:00:54;13.50;;;6.47;;
25988;SDS011;13778;48.236;9.894;2023-10-08T16:03:46;11.35;;;6.00;;
25988;SDS011;13778;48.236;9.894;2023-10-08T16:06:36;17.08;;;5.95;;
25988;SDS011;13778;48.236;9.894;2023-10-08T16:09:27;18.55;;;6.07;;
25988;SDS011;13778;48.236;9.894;2023-10-08T16:12:17;11.80;;;6.28;;
25988;SDS011;13778;48.236;9.894;2023-10-08T16:15:08;13.52;;;5.43;;
25988;SDS011;13778;48.236;9.894;2023-10-08T16:17:58;15.07;;;5.35;;
25988;SDS011;13778;48.236;9.894;2023-10-08T16:20:50;15.98;;;5.75;;
25988;SDS011;13778;48.236;9.894;2023-10-08T16:23:41;13.82;;;5.90;;
25988;SDS011;13778;48.236;9.894;2023-10-08T16:26:32;17.17;;;5.28;;
25988;SDS011;13778;48.236;9.894;2023-10-08T16:29:22;12.50;;;5.25;;
25988;SDS011;13778;48.236;9.894;2023-10-08T16:32:13;11.48;;;5.38;;
25988;SDS011;13778;48.236;9.894;2023-10-08T16:35:03;11.38;;;5.60;;
25988;SDS011;13778;48.236;9.894;2023-10-08T16:37:55;16.88;;;5.82;;
25988;SDS011;13778;48.236;9.894;2023-10-08T16:43:36;17.00;;;6.38;;
25988;SDS011;13778;48.236;9.894;2023-10-08T16:46:27;16.15;;;5.20;;
25988;SDS011;13778;48.236;9.894;2023-10-08T16:49:17;12.82;;;5.75;;
25988;SDS011;13778;48.236;9.894;2023-10-08T16:52:09;12.93;;;5.78;;
25988;SDS011;13778;48.236;9.894;2023-10-08T16:55:01;16.00;;;5.70;;
25988;SDS011;13778;48.236;9.894;2023-10-08T16:57:51;21.08;;;5.95;;
25988;SDS011;13778;48.236;9.894;2023-10-08T17:00:42;15.60;;;6.35;;
25988;SDS011;13778;48.236;9.894;2023-10-08T17:03:33;16.00;;;8.17;;
25988;SDS011;13778;48.236;9.894;2023-10-08T17:06:23;19.48;;;8.23;;
25988;SDS011;13778;48.236;9.894;2023-10-08T17:09:13;18.95;;;6.18;;
25988;SDS011;13778;48.236;9.894;2023-10-08T17:12:06;11.93;;;5.07;;
25988;SDS011;13778;48.236;9.894;2023-10-08T17:14:58;17.85;;;6.82;;
25988;SDS011;13778;48.236;9.894;2023-10-08T17:17:49;19.85;;;6.47;;
25988;SDS011;13778;48.236;9.894;2023-10-08T17:20:39;12.73;;;5.88;;
25988;SDS011;13778;48.236;9.894;2023-10-08T17:23:30;21.88;;;6.45;;
25988;SDS011;13778;48.236;9.894;2023-10-08T17:26:21;20.65;;;6.80;;
25988;SDS011;13778;48.236;9.894;2023-10-08T17:29:12;14.07;;;6.65;;
25988;SDS011;13778;48.236;9.894;2023-10-08T17:32:05;21.50;;;7.15;;
25988;SDS011;13778;48.236;9.894;2023-10-08T17:34:56;18.60;;;7.20;;
25988;SDS011;13778;48.236;9.894;2023-10-08T17:37:46;23.02;;;7.45;;
25988;SDS011;13778;48.236;9.894;2023-10-08T17:40:37;16.83;;;6.63;;
25988;SDS011;13778;48.236;9.894;2023-10-08T17:43:28;16.48;;;6.75;;
25988;SDS011;13778;48.236;9.894;2023-10-08T17:46:20;16.17;;;6.47;;
25988;SDS011;13778;48.236;9.894;2023-10-08T17:49:15;17.02;;;6.32;;
25988;SDS011;13778;48.236;9.894;2023-10-08T17:52:05;16.48;;;6.88;;
25988;SDS011;13778;48.236;9.894;2023-10-08T17:54:56;17.35;;;7.43;;